sensor_id;sensor_type;location;lat;lon;timestamp;temperature;humidity
9951;DHT22;24074;49.254;6.702;2023-10-09T00:01:40;10.40;99.90
9951;DHT22;24074;49.254;6.702;2023-10-09T00:04:08;10.40;99.90
9951;DHT22;24074;49.254;6.702;2023-10-09T00:06:36;10.40;99.90
9951;DHT22;24074;49.254;6.702;2023-10-09T00:09:05;10.30;99.90
9951;DHT22;24074;49.254;6.702;2023-10-09T00:11:49;10.30;99.90
9951;DHT22;24074;49.254;6.702;2023-10-09T00:14:22;10.30;99.90
9951;DHT22;24074;49.254;6.702;2023-10-09T00:16:47;10.40;99.90
9951;DHT22;24074;49.254;6.702;2023-10-09T00:19:22;10.40;99.90
9951;DHT22;24074;49.254;6.702;2023-10-09T00:21:59;10.40;99.90
9951;DHT22;24074;49.254;6.702;2023-10-09T00:24:32;10.40;99.90
9951;DHT22;24074;49.254;6.702;2023-10-09T00:26:57;10.30;99.90
9951;DHT22;24074;49.254;6.702;2023-10-09T00:29:44;10.40;99.90
9951;DHT22;24074;49.254;6.702;2023-10-09T00:32:15;10.50;99.90
9951;DHT22;24074;49.254;6.702;2023-10-09T00:34:58;10.50;99.90
9951;DHT22;24074;49.254;6.702;2023-10-09T00:37:38;10.40;99.90
9951;DHT22;24074;49.254;6.702;2023-10-09T00:40:07;10.30;99.90
9951;DHT22;24074;49.254;6.702;2023-10-09T00:42:46;10.30;99.90
9951;DHT22;24074;49.254;6.702;2023-10-09T00:45:12;10.30;99.90
9951;DHT22;24074;49.254;6.702;2023-10-09T00:47:50;10.30;99.90
9951;DHT22;24074;49.254;6.702;2023-10-09T00:50:16;10.40;99.90
9951;DHT22;24074;49.254;6.702;2023-10-09T00:52:44;10.40;99.90
9951;DHT22;24074;49.254;6.702;2023-10-09T00:55:20;10.40;99.90
9951;DHT22;24074;49.254;6.702;2023-10-09T00:58:02;10.40;99.90
9951;DHT22;24074;49.254;6.702;2023-10-09T01:00:35;10.40;99.90
9951;DHT22;24074;49.254;6.702;2023-10-09T01:03:15;10.40;99.90
9951;DHT22;24074;49.254;6.702;2023-10-09T01:05:44;10.40;99.90
9951;DHT22;24074;49.254;6.702;2023-10-09T01:08:19;10.40;99.90
9951;DHT22;24074;49.254;6.702;2023-10-09T01:10:54;10.40;99.90
9951;DHT22;24074;49.254;6.702;2023-10-09T01:13:34;10.40;99.90
9951;DHT22;24074;49.254;6.702;2023-10-09T01:16:12;10.40;99.90
9951;DHT22;24074;49.254;6.702;2023-10-09T01:18:46;10.50;99.90
9951;DHT22;24074;49.254;6.702;2023-10-09T01:21:15;10.60;99.90
9951;DHT22;24074;49.254;6.702;2023-10-09T01:23:42;10.70;99.90
9951;DHT22;24074;49.254;6.702;2023-10-09T01:26:26;10.80;99.90
9951;DHT22;24074;49.254;6.702;2023-10-09T01:28:52;10.80;99.90
9951;DHT22;24074;49.254;6.702;2023-10-09T01:31:24;10.80;99.90
9951;DHT22;24074;49.254;6.702;2023-10-09T01:33:51;10.70;99.90
9951;DHT22;24074;49.254;6.702;2023-10-09T01:36:19;10.60;99.90
9951;DHT22;24074;49.254;6.702;2023-10-09T01:38:58;10.60;99.90
9951;DHT22;24074;49.254;6.702;2023-10-09T01:41:24;10.60;99.90
9951;DHT22;24074;49.254;6.702;2023-10-09T01:43:49;10.50;99.90
9951;DHT22;24074;49.254;6.702;2023-10-09T01:46:17;10.40;99.90
9951;DHT22;24074;49.254;6.702;2023-10-09T01:48:45;10.40;99.90
9951;DHT22;24074;49.254;6.702;2023-10-09T01:51:15;10.40;99.90
9951;DHT22;24074;49.254;6.702;2023-10-09T01:53:44;10.40;99.90
9951;DHT22;24074;49.254;6.702;2023-10-09T01:56:13;10.40;99.90
9951;DHT22;24074;49.254;6.702;2023-10-09T01:58:41;10.50;99.90
9951;DHT22;24074;49.254;6.702;2023-10-09T02:01:08;10.60;99.90
9951;DHT22;24074;49.254;6.702;2023-10-09T02:03:34;10.60;99.90
9951;DHT22;24074;49.254;6.702;2023-10-09T02:06:02;10.50;99.90
9951;DHT22;24074;49.254;6.702;2023-10-09T02:08:30;10.30;99.90
9951;DHT22;24074;49.254;6.702;2023-10-09T02:10:56;10.20;99.90
9951;DHT22;24074;49.254;6.702;2023-10-09T02:13:22;10.10;99.90
9951;DHT22;24074;49.254;6.702;2023-10-09T02:15:56;10.10;99.90
9951;DHT22;24074;49.254;6.702;2023-10-09T02:18:40;10.20;99.90
9951;DHT22;24074;49.254;6.702;2023-10-09T02:21:17;10.10;99.90
9951;DHT22;24074;49.254;6.702;2023-10-09T02:23:53;10.00;99.90
9951;DHT22;24074;49.254;6.702;2023-10-09T02:26:22;9.90;99.90
9951;DHT22;24074;49.254;6.702;2023-10-09T02:28:55;9.90;99.90
9951;DHT22;24074;49.254;6.702;2023-10-09T02:31:25;9.80;99.90
9951;DHT22;24074;49.254;6.702;2023-10-09T02:33:53;9.80;99.90
9951;DHT22;24074;49.254;6.702;2023-10-09T02:36:21;9.90;99.90
9951;DHT22;24074;49.254;6.702;2023-10-09T02:38:47;9.90;99.90
9951;DHT22;24074;49.254;6.702;2023-10-09T02:41:15;10.00;99.90
9951;DHT22;24074;49.254;6.702;2023-10-09T02:43:41;10.00;99.90
9951;DHT22;24074;49.254;6.702;2023-10-09T02:46:19;10.00;99.90
9951;DHT22;24074;49.254;6.702;2023-10-09T02:48:48;10.00;99.90
9951;DHT22;24074;49.254;6.702;2023-10-09T02:51:21;10.00;99.90
9951;DHT22;24074;49.254;6.702;2023-10-09T02:54:02;10.00;99.90
9951;DHT22;24074;49.254;6.702;2023-10-09T02:56:51;10.00;99.90
9951;DHT22;24074;49.254;6.702;2023-10-09T02:59:33;9.90;99.90
9951;DHT22;24074;49.254;6.702;2023-10-09T03:01:59;9.90;99.90
9951;DHT22;24074;49.254;6.702;2023-10-09T03:04:27;9.80;99.90
9951;DHT22;24074;49.254;6.702;2023-10-09T03:06:59;9.90;99.90
9951;DHT22;24074;49.254;6.702;2023-10-09T03:09:25;9.80;99.90
9951;DHT22;24074;49.254;6.702;2023-10-09T03:11:58;9.80;99.90
9951;DHT22;24074;49.254;6.702;2023-10-09T03:14:28;9.70;99.90
9951;DHT22;24074;49.254;6.702;2023-10-09T03:16:54;9.70;99.90
9951;DHT22;24074;49.254;6.702;2023-10-09T03:19:22;9.70;99.90
9951;DHT22;24074;49.254;6.702;2023-10-09T03:21:47;9.80;99.90
9951;DHT22;24074;49.254;6.702;2023-10-09T03:24:13;9.80;99.90
9951;DHT22;24074;49.254;6.702;2023-10-09T03:26:39;9.70;99.90
9951;DHT22;24074;49.254;6.702;2023-10-09T03:29:04;9.70;99.90
9951;DHT22;24074;49.254;6.702;2023-10-09T03:31:36;9.70;99.90
9951;DHT22;24074;49.254;6.702;2023-10-09T03:34:02;9.70;99.90
9951;DHT22;24074;49.254;6.702;2023-10-09T03:36:28;9.90;99.90
9951;DHT22;24074;49.254;6.702;2023-10-09T03:38:58;10.00;99.90
9951;DHT22;24074;49.254;6.702;2023-10-09T03:41:25;10.10;99.90
9951;DHT22;24074;49.254;6.702;2023-10-09T03:43:54;10.10;99.90
9951;DHT22;24074;49.254;6.702;2023-10-09T03:46:21;10.00;99.90
9951;DHT22;24074;49.254;6.702;2023-10-09T03:48:50;9.90;99.90
9951;DHT22;24074;49.254;6.702;2023-10-09T03:51:22;10.00;99.90
9951;DHT22;24074;49.254;6.702;2023-10-09T03:53:51;10.00;99.90
9951;DHT22;24074;49.254;6.702;2023-10-09T03:56:18;10.00;99.90
9951;DHT22;24074;49.254;6.702;2023-10-09T03:58:48;10.00;99.90
9951;DHT22;24074;49.254;6.702;2023-10-09T04:01:18;10.00;99.90
9951;DHT22;24074;49.254;6.702;2023-10-09T04:03:55;10.00;99.90
9951;DHT22;24074;49.254;6.702;2023-10-09T04:06:23;9.90;99.90
9951;DHT22;24074;49.254;6.702;2023-10-09T04:08:54;10.00;99.90
9951;DHT22;24074;49.254;6.702;2023-10-09T04:11:20;10.00;99.90
9951;DHT22;24074;49.254;6.702;2023-10-09T04:13:49;10.00;99.90
9951;DHT22;24074;49.254;6.702;2023-10-09T04:16:19;10.00;99.90
9951;DHT22;24074;49.254;6.702;2023-10-09T04:18:57;9.90;99.90
9951;DHT22;24074;49.254;6.702;2023-10-09T04:21:23;9.90;99.90
9951;DHT22;24074;49.254;6.702;2023-10-09T04:23:55;10.00;99.90
9951;DHT22;24074;49.254;6.702;2023-10-09T04:26:40;10.10;99.90
9951;DHT22;24074;49.254;6.702;2023-10-09T04:29:22;10.20;99.90
9951;DHT22;24074;49.254;6.702;2023-10-09T04:32:04;10.30;99.90
9951;DHT22;24074;49.254;6.702;2023-10-09T04:34:34;10.30;99.90
9951;DHT22;24074;49.254;6.702;2023-10-09T04:37:03;10.30;99.90
9951;DHT22;24074;49.254;6.702;2023-10-09T04:39:48;10.10;99.90
9951;DHT22;24074;49.254;6.702;2023-10-09T04:42:15;10.00;99.90
9951;DHT22;24074;49.254;6.702;2023-10-09T04:44:44;10.00;99.90
9951;DHT22;24074;49.254;6.702;2023-10-09T04:47:45;10.10;99.90
9951;DHT22;24074;49.254;6.702;2023-10-09T04:50:24;10.00;99.90
9951;DHT22;24074;49.254;6.702;2023-10-09T04:52:56;9.90;99.90
9951;DHT22;24074;49.254;6.702;2023-10-09T04:55:21;9.80;99.90
9951;DHT22;24074;49.254;6.702;2023-10-09T04:57:51;9.80;99.90
9951;DHT22;24074;49.254;6.702;2023-10-09T05:00:26;9.80;99.90
9951;DHT22;24074;49.254;6.702;2023-10-09T05:03:02;9.80;99.90
9951;DHT22;24074;49.254;6.702;2023-10-09T05:05:38;9.70;99.90
9951;DHT22;24074;49.254;6.702;2023-10-09T05:10:47;9.80;99.90
9951;DHT22;24074;49.254;6.702;2023-10-09T05:13:25;9.80;99.90
9951;DHT22;24074;49.254;6.702;2023-10-09T05:16:10;9.80;99.90
9951;DHT22;24074;49.254;6.702;2023-10-09T05:18:42;9.70;99.90
9951;DHT22;24074;49.254;6.702;2023-10-09T05:21:13;9.60;99.90
9951;DHT22;24074;49.254;6.702;2023-10-09T05:23:39;9.50;99.90
9951;DHT22;24074;49.254;6.702;2023-10-09T05:26:14;9.40;99.90
9951;DHT22;24074;49.254;6.702;2023-10-09T05:29:03;9.20;99.90
9951;DHT22;24074;49.254;6.702;2023-10-09T05:31:45;9.20;99.90
9951;DHT22;24074;49.254;6.702;2023-10-09T05:34:22;9.30;99.90
9951;DHT22;24074;49.254;6.702;2023-10-09T05:36:48;9.30;99.90
9951;DHT22;24074;49.254;6.702;2023-10-09T05:39:16;9.30;99.90
9951;DHT22;24074;49.254;6.702;2023-10-09T05:41:45;9.20;99.90
9951;DHT22;24074;49.254;6.702;2023-10-09T05:44:33;9.20;99.90
9951;DHT22;24074;49.254;6.702;2023-10-09T05:47:19;9.10;99.90
9951;DHT22;24074;49.254;6.702;2023-10-09T05:49:59;9.10;99.90
9951;DHT22;24074;49.254;6.702;2023-10-09T05:52:34;9.10;99.90
9951;DHT22;24074;49.254;6.702;2023-10-09T05:55:06;9.10;99.90
9951;DHT22;24074;49.254;6.702;2023-10-09T05:57:54;9.10;99.90
9951;DHT22;24074;49.254;6.702;2023-10-09T06:00:38;9.10;99.90
9951;DHT22;24074;49.254;6.702;2023-10-09T06:03:22;9.10;99.90
9951;DHT22;24074;49.254;6.702;2023-10-09T06:05:53;9.10;99.90
9951;DHT22;24074;49.254;6.702;2023-10-09T06:08:19;9.30;99.90
9951;DHT22;24074;49.254;6.702;2023-10-09T06:11:04;9.40;99.90
9951;DHT22;24074;49.254;6.702;2023-10-09T06:13:57;9.60;99.90
9951;DHT22;24074;49.254;6.702;2023-10-09T06:16:30;9.70;99.90
9951;DHT22;24074;49.254;6.702;2023-10-09T06:19:08;9.90;99.90
9951;DHT22;24074;49.254;6.702;2023-10-09T06:21:58;10.00;99.90
9951;DHT22;24074;49.254;6.702;2023-10-09T06:24:43;10.20;99.90
9951;DHT22;24074;49.254;6.702;2023-10-09T06:27:21;10.30;99.90
9951;DHT22;24074;49.254;6.702;2023-10-09T06:30:10;10.30;99.90
9951;DHT22;24074;49.254;6.702;2023-10-09T06:32:44;10.30;99.90
9951;DHT22;24074;49.254;6.702;2023-10-09T06:35:28;10.40;99.90
9951;DHT22;24074;49.254;6.702;2023-10-09T06:38:00;10.50;99.90
9951;DHT22;24074;49.254;6.702;2023-10-09T06:40:38;10.60;99.90
9951;DHT22;24074;49.254;6.702;2023-10-09T06:43:42;10.80;99.90
9951;DHT22;24074;49.254;6.702;2023-10-09T06:46:16;10.90;99.90
9951;DHT22;24074;49.254;6.702;2023-10-09T06:48:47;11.10;99.90
9951;DHT22;24074;49.254;6.702;2023-10-09T06:51:22;11.20;99.90
9951;DHT22;24074;49.254;6.702;2023-10-09T06:53:57;11.30;99.90
9951;DHT22;24074;49.254;6.702;2023-10-09T06:56:31;11.40;99.90
9951;DHT22;24074;49.254;6.702;2023-10-09T06:59:00;11.50;99.90
9951;DHT22;24074;49.254;6.702;2023-10-09T07:01:44;11.70;99.90
9951;DHT22;24074;49.254;6.702;2023-10-09T07:04:13;11.70;99.90
9951;DHT22;24074;49.254;6.702;2023-10-09T07:07:06;11.80;99.90
9951;DHT22;24074;49.254;6.702;2023-10-09T07:09:40;12.00;99.90
9951;DHT22;24074;49.254;6.702;2023-10-09T07:12:28;12.10;99.90
9951;DHT22;24074;49.254;6.702;2023-10-09T07:14:59;12.30;99.90
9951;DHT22;24074;49.254;6.702;2023-10-09T07:17:25;12.40;99.90
9951;DHT22;24074;49.254;6.702;2023-10-09T07:19:59;12.40;99.90
9951;DHT22;24074;49.254;6.702;2023-10-09T07:22:36;12.60;99.90
9951;DHT22;24074;49.254;6.702;2023-10-09T07:25:05;12.60;99.90
9951;DHT22;24074;49.254;6.702;2023-10-09T07:27:48;12.70;99.90
9951;DHT22;24074;49.254;6.702;2023-10-09T07:30:18;13.00;99.90
9951;DHT22;24074;49.254;6.702;2023-10-09T07:32:57;13.10;99.90
9951;DHT22;24074;49.254;6.702;2023-10-09T07:35:47;13.20;99.90
9951;DHT22;24074;49.254;6.702;2023-10-09T07:40:46;13.20;99.90
9951;DHT22;24074;49.254;6.702;2023-10-09T07:43:38;13.20;99.90
9951;DHT22;24074;49.254;6.702;2023-10-09T07:48:56;13.20;99.90
9951;DHT22;24074;49.254;6.702;2023-10-09T07:51:23;13.40;99.90
9951;DHT22;24074;49.254;6.702;2023-10-09T07:53:58;13.20;99.90
9951;DHT22;24074;49.254;6.702;2023-10-09T07:56:34;13.40;99.90
9951;DHT22;24074;49.254;6.702;2023-10-09T07:59:09;13.60;99.90
9951;DHT22;24074;49.254;6.702;2023-10-09T08:01:42;13.80;99.90
9951;DHT22;24074;49.254;6.702;2023-10-09T08:04:26;14.10;99.90
9951;DHT22;24074;49.254;6.702;2023-10-09T08:07:11;14.40;99.90
9951;DHT22;24074;49.254;6.702;2023-10-09T08:09:54;14.80;99.90
9951;DHT22;24074;49.254;6.702;2023-10-09T08:12:38;15.20;99.90
9951;DHT22;24074;49.254;6.702;2023-10-09T08:15:12;15.70;99.90
9951;DHT22;24074;49.254;6.702;2023-10-09T08:17:57;16.00;99.90
9951;DHT22;24074;49.254;6.702;2023-10-09T08:20:44;16.20;99.90
9951;DHT22;24074;49.254;6.702;2023-10-09T08:23:22;16.20;99.90
9951;DHT22;24074;49.254;6.702;2023-10-09T08:26:06;16.30;99.90
9951;DHT22;24074;49.254;6.702;2023-10-09T08:28:39;16.50;99.90
9951;DHT22;24074;49.254;6.702;2023-10-09T08:31:12;16.80;99.90
9951;DHT22;24074;49.254;6.702;2023-10-09T08:34:06;17.30;99.90
9951;DHT22;24074;49.254;6.702;2023-10-09T08:36:35;17.90;99.90
9951;DHT22;24074;49.254;6.702;2023-10-09T08:39:04;18.20;99.90
9951;DHT22;24074;49.254;6.702;2023-10-09T08:41:54;18.70;99.90
9951;DHT22;24074;49.254;6.702;2023-10-09T08:44:27;19.00;99.90
9951;DHT22;24074;49.254;6.702;2023-10-09T08:46:55;19.30;99.90
9951;DHT22;24074;49.254;6.702;2023-10-09T08:49:23;19.50;99.90
9951;DHT22;24074;49.254;6.702;2023-10-09T08:51:48;19.40;99.90
9951;DHT22;24074;49.254;6.702;2023-10-09T08:54:14;19.90;99.90
9951;DHT22;24074;49.254;6.702;2023-10-09T08:56:41;20.30;99.90
9951;DHT22;24074;49.254;6.702;2023-10-09T08:59:17;20.90;99.90
9951;DHT22;24074;49.254;6.702;2023-10-09T09:01:46;21.50;99.90
9951;DHT22;24074;49.254;6.702;2023-10-09T09:04:38;21.80;99.90
9951;DHT22;24074;49.254;6.702;2023-10-09T09:07:25;22.20;99.90
9951;DHT22;24074;49.254;6.702;2023-10-09T09:09:57;22.80;99.90
9951;DHT22;24074;49.254;6.702;2023-10-09T09:12:26;23.20;99.90
9951;DHT22;24074;49.254;6.702;2023-10-09T09:14:56;23.80;99.90
9951;DHT22;24074;49.254;6.702;2023-10-09T09:17:25;26.00;99.90
9951;DHT22;24074;49.254;6.702;2023-10-09T09:19:56;26.60;99.90
9951;DHT22;24074;49.254;6.702;2023-10-09T09:22:23;26.00;99.90
9951;DHT22;24074;49.254;6.702;2023-10-09T09:24:58;25.20;99.90
9951;DHT22;24074;49.254;6.702;2023-10-09T09:27:45;24.80;99.90
9951;DHT22;24074;49.254;6.702;2023-10-09T09:30:31;24.40;99.90
9951;DHT22;24074;49.254;6.702;2023-10-09T09:33:17;24.20;99.90
9951;DHT22;24074;49.254;6.702;2023-10-09T09:36:02;24.50;99.90
9951;DHT22;24074;49.254;6.702;2023-10-09T09:38:30;25.50;99.90
9951;DHT22;24074;49.254;6.702;2023-10-09T09:41:13;25.90;99.90
9951;DHT22;24074;49.254;6.702;2023-10-09T09:43:51;25.80;99.90
9951;DHT22;24074;49.254;6.702;2023-10-09T09:46:18;27.10;99.90
9951;DHT22;24074;49.254;6.702;2023-10-09T09:48:44;26.80;99.90
9951;DHT22;24074;49.254;6.702;2023-10-09T09:51:13;26.10;99.90
9951;DHT22;24074;49.254;6.702;2023-10-09T09:53:40;25.70;99.90
9951;DHT22;24074;49.254;6.702;2023-10-09T09:56:06;25.50;99.90
9951;DHT22;24074;49.254;6.702;2023-10-09T09:58:34;25.10;99.90
9951;DHT22;24074;49.254;6.702;2023-10-09T10:01:09;24.80;99.90
9951;DHT22;24074;49.254;6.702;2023-10-09T10:04:11;24.80;99.90
9951;DHT22;24074;49.254;6.702;2023-10-09T10:06:40;24.60;99.90
9951;DHT22;24074;49.254;6.702;2023-10-09T10:09:10;24.40;99.90
9951;DHT22;24074;49.254;6.702;2023-10-09T10:11:45;24.60;99.90
9951;DHT22;24074;49.254;6.702;2023-10-09T10:14:12;25.40;99.90
9951;DHT22;24074;49.254;6.702;2023-10-09T10:17:06;25.40;99.90
9951;DHT22;24074;49.254;6.702;2023-10-09T10:20:04;26.70;99.90
9951;DHT22;24074;49.254;6.702;2023-10-09T10:22:45;27.60;99.90
9951;DHT22;24074;49.254;6.702;2023-10-09T10:28:20;28.10;97.90
9951;DHT22;24074;49.254;6.702;2023-10-09T10:31:05;28.00;97.20
9951;DHT22;24074;49.254;6.702;2023-10-09T10:36:21;29.50;93.20
9951;DHT22;24074;49.254;6.702;2023-10-09T10:39:06;29.20;91.80
9951;DHT22;24074;49.254;6.702;2023-10-09T10:42:01;28.50;91.60
9951;DHT22;24074;49.254;6.702;2023-10-09T10:44:32;28.30;92.00
9951;DHT22;24074;49.254;6.702;2023-10-09T10:47:12;29.70;90.10
9951;DHT22;24074;49.254;6.702;2023-10-09T10:50:01;30.50;83.40
9951;DHT22;24074;49.254;6.702;2023-10-09T10:52:45;28.80;80.90
9951;DHT22;24074;49.254;6.702;2023-10-09T10:55:16;27.40;86.80
9951;DHT22;24074;49.254;6.702;2023-10-09T10:58:17;26.80;90.60
9951;DHT22;24074;49.254;6.702;2023-10-09T11:00:56;27.10;90.70
9951;DHT22;24074;49.254;6.702;2023-10-09T11:03:22;28.00;90.60
9951;DHT22;24074;49.254;6.702;2023-10-09T11:06:30;28.60;88.30
9951;DHT22;24074;49.254;6.702;2023-10-09T11:09:07;30.30;78.00
9951;DHT22;24074;49.254;6.702;2023-10-09T11:11:51;30.50;75.20
9951;DHT22;24074;49.254;6.702;2023-10-09T11:14:20;30.20;71.90
9951;DHT22;24074;49.254;6.702;2023-10-09T11:16:50;29.80;72.10
9951;DHT22;24074;49.254;6.702;2023-10-09T11:19:20;29.10;72.50
9951;DHT22;24074;49.254;6.702;2023-10-09T11:21:52;28.20;74.50
9951;DHT22;24074;49.254;6.702;2023-10-09T11:24:47;27.50;77.10
9951;DHT22;24074;49.254;6.702;2023-10-09T11:27:26;26.50;83.10
9951;DHT22;24074;49.254;6.702;2023-10-09T11:29:57;26.40;87.10
9951;DHT22;24074;49.254;6.702;2023-10-09T11:32:30;25.80;89.60
9951;DHT22;24074;49.254;6.702;2023-10-09T11:35:14;25.60;91.90
9951;DHT22;24074;49.254;6.702;2023-10-09T11:37:56;25.70;93.30
9951;DHT22;24074;49.254;6.702;2023-10-09T11:40:33;25.80;94.00
9951;DHT22;24074;49.254;6.702;2023-10-09T11:43:17;25.80;93.40
9951;DHT22;24074;49.254;6.702;2023-10-09T11:45:43;25.70;94.10
9951;DHT22;24074;49.254;6.702;2023-10-09T11:48:20;25.60;94.90
9951;DHT22;24074;49.254;6.702;2023-10-09T11:51:13;25.60;95.50
9951;DHT22;24074;49.254;6.702;2023-10-09T11:53:45;25.60;95.40
9951;DHT22;24074;49.254;6.702;2023-10-09T11:56:11;25.70;95.00
9951;DHT22;24074;49.254;6.702;2023-10-09T11:58:42;25.80;94.70
9951;DHT22;24074;49.254;6.702;2023-10-09T12:01:14;25.80;94.50
9951;DHT22;24074;49.254;6.702;2023-10-09T12:03:45;25.70;94.60
9951;DHT22;24074;49.254;6.702;2023-10-09T12:06:19;25.70;95.20
9951;DHT22;24074;49.254;6.702;2023-10-09T12:08:47;25.70;93.70
9951;DHT22;24074;49.254;6.702;2023-10-09T12:11:13;25.70;94.30
9951;DHT22;24074;49.254;6.702;2023-10-09T12:13:39;25.80;94.40
9951;DHT22;24074;49.254;6.702;2023-10-09T12:16:08;25.70;93.70
9951;DHT22;24074;49.254;6.702;2023-10-09T12:18:35;25.90;91.60
9951;DHT22;24074;49.254;6.702;2023-10-09T12:21:01;26.20;90.30
9951;DHT22;24074;49.254;6.702;2023-10-09T12:23:30;26.50;88.80
9951;DHT22;24074;49.254;6.702;2023-10-09T12:26:01;26.60;82.80
9951;DHT22;24074;49.254;6.702;2023-10-09T12:28:27;26.30;82.40
9951;DHT22;24074;49.254;6.702;2023-10-09T12:30:53;26.50;79.00
9951;DHT22;24074;49.254;6.702;2023-10-09T12:33:20;26.40;78.60
9951;DHT22;24074;49.254;6.702;2023-10-09T12:35:53;26.10;79.20
9951;DHT22;24074;49.254;6.702;2023-10-09T12:38:28;26.10;79.70
9951;DHT22;24074;49.254;6.702;2023-10-09T12:43:34;26.30;85.50
9951;DHT22;24074;49.254;6.702;2023-10-09T12:46:07;26.20;83.90
9951;DHT22;24074;49.254;6.702;2023-10-09T12:48:33;26.20;83.40
9951;DHT22;24074;49.254;6.702;2023-10-09T12:50:58;26.50;80.50
9951;DHT22;24074;49.254;6.702;2023-10-09T12:53:34;27.00;77.10
9951;DHT22;24074;49.254;6.702;2023-10-09T12:56:00;26.90;77.50
9951;DHT22;24074;49.254;6.702;2023-10-09T12:58:25;26.80;79.20
9951;DHT22;24074;49.254;6.702;2023-10-09T13:00:52;26.70;77.60
9951;DHT22;24074;49.254;6.702;2023-10-09T13:03:18;26.70;74.50
9951;DHT22;24074;49.254;6.702;2023-10-09T13:05:52;26.60;75.00
9951;DHT22;24074;49.254;6.702;2023-10-09T13:08:27;26.50;73.70
9951;DHT22;24074;49.254;6.702;2023-10-09T13:11:08;26.20;74.00
9951;DHT22;24074;49.254;6.702;2023-10-09T13:13:41;26.10;73.10
9951;DHT22;24074;49.254;6.702;2023-10-09T13:16:19;26.20;72.40
9951;DHT22;24074;49.254;6.702;2023-10-09T13:18:54;26.00;70.80
9951;DHT22;24074;49.254;6.702;2023-10-09T13:21:27;26.00;70.60
9951;DHT22;24074;49.254;6.702;2023-10-09T13:23:57;25.80;70.30
9951;DHT22;24074;49.254;6.702;2023-10-09T13:26:23;25.60;68.00
9951;DHT22;24074;49.254;6.702;2023-10-09T13:28:52;25.60;68.40
9951;DHT22;24074;49.254;6.702;2023-10-09T13:31:22;25.90;68.00
9951;DHT22;24074;49.254;6.702;2023-10-09T13:33:51;26.00;71.30
9951;DHT22;24074;49.254;6.702;2023-10-09T13:36:19;26.30;69.80
9951;DHT22;24074;49.254;6.702;2023-10-09T13:38:55;26.60;67.50
9951;DHT22;24074;49.254;6.702;2023-10-09T13:41:24;26.70;67.30
9951;DHT22;24074;49.254;6.702;2023-10-09T13:43:54;26.80;68.10
9951;DHT22;24074;49.254;6.702;2023-10-09T13:46:22;26.70;66.70
9951;DHT22;24074;49.254;6.702;2023-10-09T13:48:49;26.60;66.70
9951;DHT22;24074;49.254;6.702;2023-10-09T13:51:15;26.60;69.00
9951;DHT22;24074;49.254;6.702;2023-10-09T13:53:45;26.50;67.40
9951;DHT22;24074;49.254;6.702;2023-10-09T13:56:15;26.70;67.60
9951;DHT22;24074;49.254;6.702;2023-10-09T13:58:50;26.70;67.20
9951;DHT22;24074;49.254;6.702;2023-10-09T14:01:19;26.70;66.20
9951;DHT22;24074;49.254;6.702;2023-10-09T14:03:55;26.80;63.60
9951;DHT22;24074;49.254;6.702;2023-10-09T14:06:20;26.70;66.20
9951;DHT22;24074;49.254;6.702;2023-10-09T14:08:59;26.70;66.30
9951;DHT22;24074;49.254;6.702;2023-10-09T14:11:26;26.60;63.10
9951;DHT22;24074;49.254;6.702;2023-10-09T14:13:54;26.60;64.30
9951;DHT22;24074;49.254;6.702;2023-10-09T14:16:20;26.50;62.70
9951;DHT22;24074;49.254;6.702;2023-10-09T14:18:58;26.20;63.40
9951;DHT22;24074;49.254;6.702;2023-10-09T14:21:25;25.90;65.60
9951;DHT22;24074;49.254;6.702;2023-10-09T14:23:52;25.70;66.80
9951;DHT22;24074;49.254;6.702;2023-10-09T14:26:29;25.40;66.40
9951;DHT22;24074;49.254;6.702;2023-10-09T14:28:56;25.40;66.70
9951;DHT22;24074;49.254;6.702;2023-10-09T14:31:25;25.40;64.60
9951;DHT22;24074;49.254;6.702;2023-10-09T14:33:56;25.20;62.00
9951;DHT22;24074;49.254;6.702;2023-10-09T14:36:24;25.20;61.90
9951;DHT22;24074;49.254;6.702;2023-10-09T14:38:51;25.20;62.40
9951;DHT22;24074;49.254;6.702;2023-10-09T14:41:21;25.10;62.00
9951;DHT22;24074;49.254;6.702;2023-10-09T14:43:51;25.00;62.20
9951;DHT22;24074;49.254;6.702;2023-10-09T14:46:17;25.00;62.70
9951;DHT22;24074;49.254;6.702;2023-10-09T14:48:48;25.10;63.00
9951;DHT22;24074;49.254;6.702;2023-10-09T14:51:14;25.00;62.90
9951;DHT22;24074;49.254;6.702;2023-10-09T14:53:40;24.90;63.40
9951;DHT22;24074;49.254;6.702;2023-10-09T14:56:06;24.80;64.20
9951;DHT22;24074;49.254;6.702;2023-10-09T14:58:35;24.80;65.30
9951;DHT22;24074;49.254;6.702;2023-10-09T15:01:10;24.60;65.30
9951;DHT22;24074;49.254;6.702;2023-10-09T15:03:38;24.60;66.10
9951;DHT22;24074;49.254;6.702;2023-10-09T15:06:04;24.70;67.50
9951;DHT22;24074;49.254;6.702;2023-10-09T15:08:34;24.70;68.00
9951;DHT22;24074;49.254;6.702;2023-10-09T15:11:00;24.70;69.90
9951;DHT22;24074;49.254;6.702;2023-10-09T15:13:26;24.80;69.40
9951;DHT22;24074;49.254;6.702;2023-10-09T15:15:54;24.80;68.80
9951;DHT22;24074;49.254;6.702;2023-10-09T15:18:21;24.70;70.40
9951;DHT22;24074;49.254;6.702;2023-10-09T15:20:47;24.60;75.60
9951;DHT22;24074;49.254;6.702;2023-10-09T15:23:13;24.40;77.80
9951;DHT22;24074;49.254;6.702;2023-10-09T15:25:38;24.20;80.30
9951;DHT22;24074;49.254;6.702;2023-10-09T15:28:05;23.80;80.90
9951;DHT22;24074;49.254;6.702;2023-10-09T15:30:33;23.40;82.10
9951;DHT22;24074;49.254;6.702;2023-10-09T15:32:59;23.10;89.40
9951;DHT22;24074;49.254;6.702;2023-10-09T15:35:24;22.70;96.30
9951;DHT22;24074;49.254;6.702;2023-10-09T15:37:54;22.50;98.10
9951;DHT22;24074;49.254;6.702;2023-10-09T15:40:19;22.40;99.90
9951;DHT22;24074;49.254;6.702;2023-10-09T15:42:50;22.30;99.90
9951;DHT22;24074;49.254;6.702;2023-10-09T15:45:16;22.00;99.90
9951;DHT22;24074;49.254;6.702;2023-10-09T15:47:45;21.70;99.90
9951;DHT22;24074;49.254;6.702;2023-10-09T15:50:10;21.60;99.90
9951;DHT22;24074;49.254;6.702;2023-10-09T15:52:38;21.50;99.90
9951;DHT22;24074;49.254;6.702;2023-10-09T15:55:05;21.40;99.90
9951;DHT22;24074;49.254;6.702;2023-10-09T15:57:41;21.20;99.90
9951;DHT22;24074;49.254;6.702;2023-10-09T16:00:08;21.00;99.90
9951;DHT22;24074;49.254;6.702;2023-10-09T16:02:43;21.00;99.90
9951;DHT22;24074;49.254;6.702;2023-10-09T16:05:09;20.90;99.90
9951;DHT22;24074;49.254;6.702;2023-10-09T16:07:39;20.70;99.90
9951;DHT22;24074;49.254;6.702;2023-10-09T16:10:06;20.60;99.90
9951;DHT22;24074;49.254;6.702;2023-10-09T16:12:37;20.50;99.90
9951;DHT22;24074;49.254;6.702;2023-10-09T16:15:03;20.40;99.90
9951;DHT22;24074;49.254;6.702;2023-10-09T16:17:35;20.20;99.90
9951;DHT22;24074;49.254;6.702;2023-10-09T16:20:01;20.00;99.90
9951;DHT22;24074;49.254;6.702;2023-10-09T16:22:27;19.80;99.90
9951;DHT22;24074;49.254;6.702;2023-10-09T16:25:00;19.70;99.90
9951;DHT22;24074;49.254;6.702;2023-10-09T16:27:26;19.50;99.90
9951;DHT22;24074;49.254;6.702;2023-10-09T16:29:53;19.40;99.90
9951;DHT22;24074;49.254;6.702;2023-10-09T16:32:19;19.20;99.90
9951;DHT22;24074;49.254;6.702;2023-10-09T16:34:50;19.00;99.90
9951;DHT22;24074;49.254;6.702;2023-10-09T16:37:16;18.90;99.90
9951;DHT22;24074;49.254;6.702;2023-10-09T16:39:43;18.80;99.90
9951;DHT22;24074;49.254;6.702;2023-10-09T16:42:10;18.60;99.90